Time;durP1;ratioP1;P1;durP2;ratioP2;P2;SDS_P1;SDS_P2;PMS_P1;PMS_P2;Temp;Humidity;BMP_temperature;BMP_pressure;BME280_temperature;BME280_humidity;BME280_pressure;Samples;Min_cycle;Max_cycle;Signal;HPM_P1;HPM_P2
2021/11/25 00:02:04;;;;;;;7.40;6.42;;;;;;;12.14;51.88;100409.33;1827821;77;21490;-60
2021/11/25 00:04:32;;;;;;;7.28;6.15;;;;;;;12.14;51.89;100405.84;1834336;77;21053;-59
2021/11/25 00:06:58;;;;;;;7.92;6.67;;;;;;;12.14;51.87;100403.17;1843106;77;21021;-60
2021/11/25 00:09:25;;;;;;;8.45;6.03;;;;;;;12.13;51.85;100413.00;1836523;77;21059;-61
2021/11/25 00:11:51;;;;;;;7.85;7.05;;;;;;;12.13;51.83;100409.00;1823204;77;20990;-59
2021/11/25 00:14:18;;;;;;;8.58;6.90;;;;;;;12.13;51.83;100401.48;1818396;77;20981;-59
2021/11/25 00:16:46;;;;;;;7.40;6.60;;;;;;;12.13;51.83;100410.34;1846660;77;21052;-60
2021/11/25 00:19:13;;;;;;;7.30;6.55;;;;;;;12.13;51.80;100406.81;1839980;77;21470;-60
2021/11/25 00:21:39;;;;;;;7.67;6.95;;;;;;;12.13;51.77;100409.48;1846306;77;21138;-60
2021/11/25 00:24:06;;;;;;;7.42;6.70;;;;;;;12.13;51.78;100409.00;1835386;77;20993;-60
2021/11/25 00:26:33;;;;;;;7.83;7.03;;;;;;;12.13;51.77;100409.48;1838022;76;20990;-60
2021/11/25 00:29:00;;;;;;;8.00;6.70;;;;;;;12.12;51.77;100401.17;1826883;77;21064;-59
2021/11/25 00:31:28;;;;;;;7.35;6.65;;;;;;;12.12;51.75;100399.33;1817923;77;20995;-59
2021/11/25 00:33:54;;;;;;;8.00;7.20;;;;;;;12.12;51.74;100405.16;1767137;80;23245;-60
2021/11/25 00:36:21;;;;;;;7.37;6.65;;;;;;;12.12;51.74;100401.17;1774751;79;21054;-63
2021/11/25 00:38:48;;;;;;;7.37;6.62;;;;;;;12.12;51.72;100405.16;1788821;80;21005;-60
2021/11/25 00:41:14;;;;;;;7.85;7.08;;;;;;;12.11;51.75;100405.67;1777055;79;21109;-62
2021/11/25 00:43:41;;;;;;;7.33;6.60;;;;;;;12.10;51.73;100401.33;1747792;80;21003;-59
2021/11/25 00:46:08;;;;;;;7.25;6.55;;;;;;;12.10;51.71;100398.66;1809986;79;21842;-60
2021/11/25 00:48:34;;;;;;;7.50;6.70;;;;;;;12.11;51.71;100399.48;1812482;79;21588;-60
2021/11/25 00:51:01;;;;;;;8.20;7.33;;;;;;;12.11;51.71;100399.48;1807868;79;21010;-59
2021/11/25 00:53:28;;;;;;;8.43;7.28;;;;;;;12.11;51.69;100400.82;1796327;79;21053;-59
2021/11/25 00:55:54;;;;;;;8.48;7.60;;;;;;;12.09;51.71;100401.00;1801003;79;21076;-59
2021/11/25 00:58:21;;;;;;;7.45;6.75;;;;;;;12.09;51.67;100392.16;1802439;79;23339;-59
2021/11/25 01:00:48;;;;;;;8.05;7.22;;;;;;;12.09;51.70;100392.16;1805120;79;21514;-60
2021/11/25 01:03:14;;;;;;;8.00;7.20;;;;;;;12.09;51.69;100391.69;1797060;79;21554;-60
2021/11/25 01:05:41;;;;;;;8.05;7.25;;;;;;;12.09;51.67;100401.00;1802383;79;21573;-59
2021/11/25 01:08:07;;;;;;;7.10;6.40;;;;;;;12.08;51.66;100390.51;1796708;77;21549;-59
2021/11/25 01:10:34;;;;;;;7.22;6.53;;;;;;;12.09;51.65;100389.50;1734464;80;21131;-60
2021/11/25 01:13:01;;;;;;;9.15;6.78;;;;;;;12.08;51.64;100394.00;1768240;79;21033;-59
2021/11/25 01:15:30;;;;;;;7.35;6.65;;;;;;;12.08;51.64;100377.19;1795086;78;21010;-59
2021/11/25 01:18:05;;;;;;;8.13;7.08;;;;;;;12.08;51.64;100382.02;1788735;79;21528;-59
2021/11/25 01:20:32;;;;;;;7.80;6.80;;;;;;;12.08;51.63;100384.67;1789658;79;21620;-59
2021/11/25 01:23:00;;;;;;;7.92;7.12;;;;;;;12.07;51.64;100379.50;1800332;79;21049;-60
2021/11/25 01:25:27;;;;;;;7.40;6.70;;;;;;;12.07;51.64;100379.03;1725008;81;21096;-60
2021/11/25 01:27:53;;;;;;;7.47;6.67;;;;;;;12.06;51.63;100373.35;1746295;82;21054;-59
2021/11/25 01:30:20;;;;;;;7.15;6.45;;;;;;;12.06;51.61;100373.35;1803403;79;21303;-59
2021/11/25 01:32:47;;;;;;;7.75;6.95;;;;;;;12.07;51.60;100374.18;1801485;79;20997;-59
2021/11/25 01:35:14;;;;;;;7.35;6.45;;;;;;;12.07;51.60;100379.50;1799481;79;21471;-60
2021/11/25 01:37:41;;;;;;;7.97;7.17;;;;;;;12.07;51.60;100371.52;1796121;79;21015;-60
2021/11/25 01:40:12;;;;;;;7.70;6.65;;;;;;;12.06;51.58;100368.53;1809068;79;21002;-59
2021/11/25 01:42:42;;;;;;;7.45;6.65;;;;;;;12.06;51.59;100369.36;1800674;79;21085;-60
2021/11/25 01:45:10;;;;;;;7.10;6.40;;;;;;;12.06;51.58;100369.36;1840841;77;20998;-59
2021/11/25 01:47:44;;;;;;;8.65;7.35;;;;;;;12.06;51.55;100371.20;1830772;77;21733;-59
2021/11/25 01:50:13;;;;;;;7.83;7.03;;;;;;;12.05;51.55;100369.52;1789175;79;21033;-60
2021/11/25 01:52:39;;;;;;;7.08;6.37;;;;;;;12.05;51.56;100379.66;1825272;77;21001;-60
2021/11/25 01:55:07;;;;;;;9.03;6.87;;;;;;;12.04;51.58;100378.01;1841489;77;21097;-59
2021/11/25 01:57:34;;;;;;;7.85;7.05;;;;;;;12.03;51.53;100372.33;1827835;77;21037;-59
2021/11/25 02:00:09;;;;;;;8.03;7.22;;;;;;;12.03;51.54;100376.33;1841760;77;21501;-60
2021/11/25 02:02:39;;;;;;;8.10;7.30;;;;;;;12.03;51.51;100374.17;1845635;77;20998;-59
2021/11/25 02:05:07;;;;;;;8.20;7.25;;;;;;;12.03;51.51;100370.17;1832849;77;21057;-59
2021/11/25 02:07:34;;;;;;;8.43;6.90;;;;;;;12.02;51.53;100374.68;1844985;77;21080;-59
2021/11/25 02:10:04;;;;;;;7.85;7.05;;;;;;;12.02;51.48;100373.85;1843810;77;21072;-60
2021/11/25 02:12:32;;;;;;;8.10;7.00;;;;;;;12.02;51.49;100373.85;1832259;77;21075;-60
2021/11/25 02:14:58;;;;;;;8.53;7.62;;;;;;;12.02;51.49;100378.67;1830610;77;21075;-60
2021/11/25 02:17:25;;;;;;;7.65;6.95;;;;;;;12.02;51.47;100375.19;1837075;77;21573;-60
2021/11/25 02:19:51;;;;;;;7.72;6.72;;;;;;;12.02;51.48;100377.84;1840129;77;21462;-60
2021/11/25 02:22:18;;;;;;;8.75;6.95;;;;;;;12.02;51.46;100383.17;1846425;77;21045;-59
2021/11/25 02:24:45;;;;;;;8.45;7.65;;;;;;;11.82;51.45;100344.81;1837430;77;21079;-61
2021/11/25 02:27:12;;;;;;;8.80;7.80;;;;;;;12.00;51.43;100382.83;1766531;79;21084;-59
2021/11/25 02:29:42;;;;;;;9.30;7.42;;;;;;;12.02;51.43;100380.51;1767057;79;21434;-59
2021/11/25 02:32:09;;;;;;;7.70;6.90;;;;;;;12.02;51.42;100380.51;1747696;81;21058;-60
2021/11/25 02:34:37;;;;;;;8.50;7.28;;;;;;;12.00;51.41;100372.17;1744344;81;21030;-60
2021/11/25 02:37:04;;;;;;;8.23;7.33;;;;;;;12.00;51.41;100378.83;1746871;79;21965;-60
2021/11/25 02:39:30;;;;;;;8.58;7.58;;;;;;;12.00;51.41;100375.34;1792152;79;21029;-61
2021/11/25 02:41:57;;;;;;;7.87;7.08;;;;;;;12.00;51.38;100376.16;1776859;79;21073;-60
2021/11/25 02:44:23;;;;;;;8.15;7.25;;;;;;;12.00;51.38;100372.17;1798676;79;21049;-60
2021/11/25 02:46:50;;;;;;;8.15;7.35;;;;;;;12.00;51.38;100375.34;1794313;79;21010;-59
2021/11/25 02:49:17;;;;;;;7.97;7.17;;;;;;;12.01;51.36;100369.00;1759659;79;21540;-60
2021/11/25 02:51:44;;;;;;;8.98;7.58;;;;;;;11.99;51.37;100369.19;1767227;80;21006;-60
2021/11/25 02:54:10;;;;;;;8.53;7.55;;;;;;;11.98;51.36;100359.52;1776073;80;21042;-60
2021/11/25 02:56:38;;;;;;;9.18;7.72;;;;;;;11.99;51.34;100363.86;1771754;80;21011;-59
2021/11/25 02:59:04;;;;;;;8.98;8.08;;;;;;;11.99;51.33;100361.67;1763520;80;21042;-60
2021/11/25 03:01:36;;;;;;;8.60;7.70;;;;;;;11.99;51.34;100371.00;1772148;80;21099;-60
2021/11/25 03:04:04;;;;;;;8.65;7.62;;;;;;;11.98;51.34;100367.51;1766447;80;21068;-60
2021/11/25 03:06:31;;;;;;;8.40;7.53;;;;;;;11.97;51.32;100367.16;1772619;80;21069;-59
2021/11/25 03:08:58;;;;;;;8.33;7.53;;;;;;;11.97;51.31;100360.50;1808916;78;20992;-60
2021/11/25 03:11:26;;;;;;;9.20;7.60;;;;;;;11.98;51.32;100365.35;1798617;79;21005;-59
2021/11/25 03:13:56;;;;;;;7.80;7.00;;;;;;;11.98;51.29;100365.35;1756463;80;21136;-60
2021/11/25 03:16:23;;;;;;;8.93;7.78;;;;;;;11.97;51.29;100357.84;1801994;79;21010;-60
2021/11/25 03:18:50;;;;;;;8.08;7.28;;;;;;;11.97;51.30;100358.34;1774350;79;21046;-60
2021/11/25 03:21:18;;;;;;;9.03;7.55;;;;;;;11.97;51.30;100358.34;1804534;79;21505;-59
2021/11/25 03:23:47;;;;;;;8.63;7.72;;;;;;;11.96;51.30;100357.52;1803632;79;21010;-60
2021/11/25 03:26:16;;;;;;;8.50;7.60;;;;;;;11.96;51.29;100356.19;1786638;79;21366;-59
2021/11/25 03:28:43;;;;;;;8.13;7.08;;;;;;;11.96;51.28;100353.52;1779847;79;21021;-60
2021/11/25 03:31:17;;;;;;;8.83;7.95;;;;;;;11.96;51.26;100350.03;1749795;79;21049;-61
2021/11/25 03:33:44;;;;;;;8.05;7.25;;;;;;;11.97;51.26;100351.69;1780800;78;21036;-59
2021/11/25 03:36:11;;;;;;;8.58;7.65;;;;;;;11.97;51.28;100348.52;1791783;79;21026;-60
2021/11/25 03:38:38;;;;;;;9.43;7.35;;;;;;;11.96;51.25;100346.04;1780049;79;21113;-59
2021/11/25 03:41:07;;;;;;;8.93;8.03;;;;;;;11.95;51.26;100347.84;1782472;79;21044;-60
2021/11/25 03:43:35;;;;;;;8.13;7.33;;;;;;;11.96;51.26;100347.38;1769938;80;21077;-59
2021/11/25 03:46:01;;;;;;;8.83;7.05;;;;;;;11.95;51.25;100348.35;1775888;80;21112;-60
2021/11/25 03:48:29;;;;;;;7.87;7.15;;;;;;;11.95;51.25;100346.52;1760905;80;21544;-59
2021/11/25 03:50:58;;;;;;;8.33;7.50;;;;;;;11.95;51.24;100341.19;1751754;80;21057;-60
2021/11/25 03:53:24;;;;;;;9.20;7.85;;;;;;;11.95;51.24;100357.16;1755551;80;21536;-59
2021/11/25 03:58:49;;;;;;;8.68;7.78;;;;;;;11.97;51.24;100341.86;1781385;79;28096;-60
2021/11/25 04:01:17;;;;;;;8.85;7.95;;;;;;;11.94;51.24;100345.37;1734998;81;21529;-59
2021/11/25 04:03:44;;;;;;;8.90;8.00;;;;;;;11.95;51.19;100346.52;1754549;81;21132;-61
2021/11/25 04:06:10;;;;;;;7.80;7.10;;;;;;;11.94;51.19;100343.53;1743563;81;20960;-59
2021/11/25 04:08:37;;;;;;;9.10;8.20;;;;;;;11.95;51.17;100346.52;1740475;81;21549;-59
2021/11/25 04:11:04;;;;;;;9.60;8.00;;;;;;;11.95;51.18;100349.18;1734207;80;21065;-61
2021/11/25 04:13:31;;;;;;;9.33;8.40;;;;;;;11.95;51.17;100343.03;1734213;81;21532;-61
2021/11/25 04:15:57;;;;;;;7.95;7.15;;;;;;;11.96;51.18;100350.03;1732142;81;21136;-60
2021/11/25 04:18:24;;;;;;;8.95;7.80;;;;;;;11.95;51.16;100340.37;1744778;81;20982;-60
2021/11/25 04:20:51;;;;;;;8.90;7.92;;;;;;;11.95;51.17;100348.35;1748068;81;21045;-59
2021/11/25 04:23:18;;;;;;;8.73;7.92;;;;;;;11.95;51.16;100345.19;1738488;81;21053;-59
2021/11/25 04:25:45;;;;;;;9.45;7.67;;;;;;;11.94;51.13;100338.21;1730995;80;21083;-60
2021/11/25 04:28:11;;;;;;;9.70;8.08;;;;;;;11.95;51.14;100342.52;1734248;81;21113;-59
2021/11/25 04:35:54;;;;;;;8.50;7.60;;;;;;;11.94;51.12;100331.55;1746175;81;21096;-59
2021/11/25 04:38:21;;;;;;;9.43;8.43;;;;;;;11.93;51.12;100335.20;1744166;81;21541;-60
2021/11/25 04:40:54;;;;;;;9.40;8.50;;;;;;;11.92;51.12;100333.55;1752645;80;22314;-60
2021/11/25 04:43:22;;;;;;;10.95;8.00;;;;;;;11.93;51.12;100340.52;1736059;81;21077;-60
2021/11/25 04:45:50;;;;;;;8.85;7.95;;;;;;;11.93;51.13;100339.70;1740908;81;21033;-59
2021/11/25 04:48:19;;;;;;;9.98;8.15;;;;;;;11.92;51.16;100332.22;1744779;81;21038;-60
2021/11/25 04:50:46;;;;;;;9.88;7.92;;;;;;;11.91;51.14;100337.19;1740815;81;21029;-60
2021/11/25 04:53:13;;;;;;;9.73;8.78;;;;;;;11.92;51.12;100335.38;1726835;81;21144;-58
2021/11/25 04:55:42;;;;;;;10.23;9.18;;;;;;;11.92;51.13;100336.21;1738116;80;21080;-60
2021/11/25 04:58:09;;;;;;;8.95;8.05;;;;;;;11.92;51.13;100328.22;1719223;81;21021;-59
2021/11/25 05:00:36;;;;;;;9.45;8.45;;;;;;;11.91;51.13;100316.39;1724929;82;20999;-61
2021/11/25 05:03:02;;;;;;;9.73;8.83;;;;;;;11.91;51.12;100318.55;1721901;81;21057;-61
2021/11/25 05:05:30;;;;;;;8.80;7.90;;;;;;;11.91;51.12;100319.88;1715745;82;21134;-61
2021/11/25 05:07:57;;;;;;;9.10;8.10;;;;;;;11.90;51.11;100319.56;1721371;82;21105;-59
2021/11/25 05:10:24;;;;;;;8.93;8.03;;;;;;;11.91;51.09;100323.05;1719609;80;21140;-59
2021/11/25 05:12:50;;;;;;;9.30;8.40;;;;;;;11.91;51.11;100319.88;1731987;82;21529;-59
2021/11/25 05:15:17;;;;;;;10.05;8.85;;;;;;;11.91;51.07;100321.22;1719455;82;21536;-60
2021/11/25 05:17:43;;;;;;;10.08;9.08;;;;;;;11.91;51.09;100315.89;1741299;81;22016;-60
2021/11/25 05:20:12;;;;;;;9.18;8.28;;;;;;;11.91;51.09;100317.73;1727474;82;21654;-60
2021/11/25 05:22:39;;;;;;;8.85;7.95;;;;;;;11.91;51.06;100319.88;1730282;82;21042;-60
2021/11/25 05:25:08;;;;;;;9.48;8.35;;;;;;;11.91;51.06;100317.22;1736811;80;21081;-60
2021/11/25 05:27:34;;;;;;;9.93;8.93;;;;;;;11.90;51.05;100316.91;1731412;82;21057;-59
2021/11/25 05:30:02;;;;;;;8.73;7.83;;;;;;;11.90;51.07;100319.56;1715049;82;21121;-59
2021/11/25 05:32:28;;;;;;;9.65;8.23;;;;;;;11.91;51.06;100318.55;1720243;82;21228;-60
2021/11/25 05:34:54;;;;;;;10.35;9.08;;;;;;;11.90;51.05;100324.89;1732571;82;20989;-60
2021/11/25 05:37:21;;;;;;;9.83;8.83;;;;;;;11.91;51.06;100323.05;1724024;81;21058;-61
2021/11/25 05:39:47;;;;;;;10.13;8.20;;;;;;;11.91;51.03;100323.88;1717163;80;21062;-60
2021/11/25 05:42:14;;;;;;;9.38;8.48;;;;;;;11.90;51.04;100324.89;1726349;82;21911;-61
2021/11/25 05:44:42;;;;;;;9.53;8.55;;;;;;;11.91;51.03;100331.86;1729125;82;21541;-60
2021/11/25 05:47:09;;;;;;;9.48;8.55;;;;;;;11.91;51.00;100325.20;1717235;82;21144;-60
2021/11/25 05:49:35;;;;;;;10.68;9.45;;;;;;;11.92;51.03;100327.40;1715018;82;21077;-59
2021/11/25 05:52:03;;;;;;;9.88;8.88;;;;;;;11.91;51.00;100321.22;1731675;82;21007;-59
2021/11/25 05:54:31;;;;;;;10.68;9.58;;;;;;;11.91;51.00;100314.56;1729223;80;21107;-60
2021/11/25 05:56:58;;;;;;;9.65;8.65;;;;;;;11.91;51.00;100307.91;1720844;82;21016;-60
2021/11/25 05:59:24;;;;;;;9.53;8.63;;;;;;;11.91;50.99;100312.41;1730687;82;21097;-61
2021/11/25 06:01:51;;;;;;;9.95;8.78;;;;;;;11.91;50.98;100313.23;1726728;82;21073;-60
2021/11/25 06:04:18;;;;;;;8.78;7.87;;;;;;;11.91;50.98;100323.05;1718039;82;21045;-60
2021/11/25 06:06:44;;;;;;;10.55;9.08;;;;;;;11.91;50.99;100317.22;1728484;82;21943;-60
2021/11/25 06:09:10;;;;;;;9.88;8.90;;;;;;;11.90;50.97;100327.55;1720302;80;21533;-61
2021/11/25 06:11:37;;;;;;;9.43;8.50;;;;;;;11.90;50.96;100322.23;1727174;82;21737;-60
2021/11/25 06:14:03;;;;;;;9.40;8.03;;;;;;;11.91;50.97;100319.06;1726790;82;21015;-62
2021/11/25 06:16:30;;;;;;;10.03;8.88;;;;;;;11.91;50.98;100321.22;1732633;82;21074;-61
2021/11/25 06:18:57;;;;;;;9.03;8.10;;;;;;;11.90;50.97;100317.38;1728583;81;21132;-60
2021/11/25 06:21:23;;;;;;;9.68;8.68;;;;;;;11.91;50.96;100321.72;1720863;82;20975;-60
2021/11/25 06:23:50;;;;;;;10.90;9.90;;;;;;;11.91;50.96;100317.22;1711983;80;21509;-61
2021/11/25 06:26:16;;;;;;;9.85;8.85;;;;;;;11.91;50.96;100319.06;1736423;81;21014;-59
2021/11/25 06:28:44;;;;;;;9.53;8.58;;;;;;;11.91;50.96;100321.22;1727678;81;21033;-60
2021/11/25 06:31:11;;;;;;;9.15;8.25;;;;;;;11.91;50.94;100321.22;1734431;81;21119;-60
2021/11/25 06:33:37;;;;;;;10.08;8.98;;;;;;;11.91;50.93;100319.88;1731956;81;21078;-60
2021/11/25 06:36:04;;;;;;;9.83;8.83;;;;;;;11.91;50.93;100317.73;1734428;82;21092;-60
2021/11/25 06:38:31;;;;;;;9.28;8.38;;;;;;;11.91;50.94;100327.05;1729354;80;21047;-60
2021/11/25 06:40:57;;;;;;;11.70;8.45;;;;;;;11.91;50.93;100326.54;1737520;82;21058;-60
2021/11/25 06:43:26;;;;;;;8.95;8.08;;;;;;;11.92;50.95;100324.23;1730693;82;21181;-60
2021/11/25 06:45:53;;;;;;;9.65;8.60;;;;;;;11.92;50.91;100324.73;1730128;82;21105;-60
2021/11/25 06:48:20;;;;;;;9.70;8.45;;;;;;;11.92;50.92;100322.07;1734027;82;21122;-61
2021/11/25 06:50:46;;;;;;;9.75;8.78;;;;;;;11.91;50.92;100325.72;1737562;81;21073;-61
2021/11/25 06:53:12;;;;;;;11.08;9.00;;;;;;;11.91;50.94;100326.54;1707581;80;21094;-61
2021/11/25 06:55:40;;;;;;;9.73;8.53;;;;;;;11.88;50.93;100315.34;1731569;82;21150;-60
2021/11/25 06:58:07;;;;;;;11.43;8.98;;;;;;;11.91;50.92;100322.55;1730728;80;21127;-61
2021/11/25 07:00:33;;;;;;;9.78;8.78;;;;;;;11.92;50.91;100324.73;1733410;81;21058;-61
2021/11/25 07:03:00;;;;;;;10.32;9.10;;;;;;;11.92;50.90;100324.73;1729765;80;20987;-62
2021/11/25 07:05:27;;;;;;;9.93;8.90;;;;;;;11.92;50.92;100324.23;1731745;82;21086;-60
2021/11/25 07:07:54;;;;;;;10.58;9.25;;;;;;;11.92;50.90;100320.23;1741709;82;21084;-60
2021/11/25 07:10:21;;;;;;;10.38;9.23;;;;;;;11.93;50.89;100331.20;1723356;82;21049;-60
2021/11/25 07:12:48;;;;;;;9.93;8.93;;;;;;;11.94;50.88;100332.06;1735418;81;21062;-61
2021/11/25 07:15:16;;;;;;;9.95;8.83;;;;;;;11.94;50.89;100335.55;1714769;82;22011;-60
2021/11/25 07:17:46;;;;;;;9.48;8.50;;;;;;;11.92;50.85;100339.38;1726673;80;22052;-61
2021/11/25 07:20:13;;;;;;;10.10;9.10;;;;;;;11.94;50.87;100328.89;1740260;81;21125;-60
2021/11/25 07:22:40;;;;;;;11.05;9.35;;;;;;;11.94;50.87;100328.06;1719603;81;21022;-60
2021/11/25 07:25:09;;;;;;;9.55;8.58;;;;;;;11.95;50.84;100320.39;1723864;81;21030;-61
2021/11/25 07:27:36;;;;;;;10.13;9.10;;;;;;;11.94;50.84;100328.89;1719766;80;21542;-62
2021/11/25 07:30:05;;;;;;;11.08;9.80;;;;;;;11.95;50.85;100326.55;1726664;82;21070;-62
2021/11/25 07:32:32;;;;;;;10.68;9.45;;;;;;;11.96;50.83;100328.23;1733857;82;21115;-60
2021/11/25 07:34:59;;;;;;;9.78;8.78;;;;;;;11.96;50.83;100329.56;1730253;81;21603;-60
2021/11/25 07:37:25;;;;;;;10.58;8.80;;;;;;;11.96;50.82;100324.74;1730508;82;21635;-61
2021/11/25 07:39:52;;;;;;;10.50;8.68;;;;;;;11.97;50.82;100326.39;1729762;82;21535;-60
2021/11/25 07:42:18;;;;;;;12.37;8.03;;;;;;;11.97;51.07;100328.55;1730947;80;21506;-60
2021/11/25 07:44:45;;;;;;;10.08;8.38;;;;;;;11.98;51.17;100326.73;1725410;82;21129;-59
2021/11/25 07:47:12;;;;;;;8.90;8.00;;;;;;;12.00;51.15;100330.07;1715283;80;22048;-61
2021/11/25 07:49:39;;;;;;;9.28;8.38;;;;;;;12.01;51.15;100333.05;1724050;82;21050;-61
2021/11/25 07:52:07;;;;;;;9.90;8.48;;;;;;;12.00;51.14;100328.23;1722061;82;21054;-62
2021/11/25 07:54:33;;;;;;;9.48;8.15;;;;;;;12.00;51.11;100322.91;1728641;82;21121;-60
2021/11/25 07:57:01;;;;;;;9.50;8.48;;;;;;;12.00;51.09;100317.58;1737166;80;21108;-62
2021/11/25 07:59:28;;;;;;;10.13;8.55;;;;;;;12.02;51.07;100321.92;1732799;80;21072;-61
2021/11/25 08:01:58;;;;;;;9.85;8.45;;;;;;;12.02;51.03;100316.09;1746101;81;21084;-62
2021/11/25 08:04:25;;;;;;;10.08;8.20;;;;;;;12.03;51.02;100322.25;1747564;81;21071;-63
2021/11/25 08:06:52;;;;;;;11.38;9.33;;;;;;;12.03;50.99;100312.92;1740730;81;21047;-61
2021/11/25 08:09:19;;;;;;;10.08;8.70;;;;;;;12.03;50.98;100321.73;1733651;81;21112;-60
2021/11/25 08:11:45;;;;;;;9.18;8.20;;;;;;;12.03;50.98;100321.73;1737661;80;21068;-60
2021/11/25 08:14:13;;;;;;;9.93;8.78;;;;;;;12.04;50.95;100322.09;1743411;80;21119;-60
2021/11/25 08:16:39;;;;;;;9.70;8.70;;;;;;;12.04;50.91;100319.93;1749998;81;21106;-62
2021/11/25 08:19:06;;;;;;;10.28;8.68;;;;;;;12.05;50.90;100323.73;1749919;81;21021;-61
2021/11/25 08:21:33;;;;;;;9.65;8.65;;;;;;;12.05;50.88;100322.91;1750238;81;21083;-61
2021/11/25 08:24:00;;;;;;;10.18;9.13;;;;;;;12.05;50.84;100319.74;1738025;81;21647;-61
2021/11/25 08:26:27;;;;;;;9.80;8.13;;;;;;;12.07;50.82;100319.58;1750071;81;21057;-60
2021/11/25 08:28:54;;;;;;;10.80;8.83;;;;;;;12.06;50.81;100326.75;1748301;80;21049;-61
2021/11/25 08:31:21;;;;;;;11.10;9.13;;;;;;;12.07;50.79;100324.91;1745298;81;21109;-64
2021/11/25 08:33:47;;;;;;;10.45;9.40;;;;;;;12.07;50.78;100316.92;1738484;80;21133;-61
2021/11/25 08:36:14;;;;;;;10.53;8.88;;;;;;;12.08;50.75;100315.94;1740008;81;21058;-61
2021/11/25 08:38:40;;;;;;;9.88;8.45;;;;;;;12.07;50.75;100311.59;1739197;81;21621;-61
2021/11/25 08:41:08;;;;;;;9.68;8.28;;;;;;;12.07;50.73;100304.46;1749093;80;21569;-62
2021/11/25 08:43:35;;;;;;;10.15;8.48;;;;;;;12.09;50.73;100310.94;1750604;81;21112;-62
2021/11/25 08:46:03;;;;;;;10.65;9.23;;;;;;;12.08;50.71;100306.11;1749996;81;21581;-61
2021/11/25 08:48:32;;;;;;;9.95;8.95;;;;;;;12.09;50.69;100309.13;1755156;81;21498;-62
2021/11/25 08:50:58;;;;;;;10.18;9.18;;;;;;;12.08;50.67;100299.45;1742727;81;22064;-62
2021/11/25 08:53:26;;;;;;;10.60;9.45;;;;;;;12.09;50.66;100298.95;1746376;81;21097;-60
2021/11/25 08:55:52;;;;;;;10.23;8.68;;;;;;;12.10;50.64;100292.64;1745265;80;21091;-63
2021/11/25 08:58:20;;;;;;;9.38;8.48;;;;;;;12.10;50.64;100291.31;1744949;81;21138;-60
2021/11/25 09:00:46;;;;;;;9.85;8.78;;;;;;;12.10;50.63;100288.14;1737188;82;21069;-60
2021/11/25 09:03:14;;;;;;;10.63;8.55;;;;;;;12.11;50.63;100288.96;1729283;82;21054;-60
2021/11/25 09:05:42;;;;;;;12.15;9.23;;;;;;;12.10;50.61;100288.14;1737746;81;21073;-60
2021/11/25 09:08:08;;;;;;;11.93;8.95;;;;;;;12.10;50.60;100282.81;1735307;80;21456;-59
2021/11/25 09:10:36;;;;;;;9.85;8.63;;;;;;;12.12;50.56;100278.15;1724497;81;21126;-60
2021/11/25 09:13:06;;;;;;;10.20;8.43;;;;;;;12.12;50.56;100279.48;1715997;82;21093;-59
2021/11/25 09:15:38;;;;;;;9.78;8.78;;;;;;;12.12;50.55;100264.83;1720990;80;21601;-60
2021/11/25 09:18:04;;;;;;;11.97;9.08;;;;;;;12.14;50.52;100276.16;1731493;80;21054;-59
2021/11/25 09:20:34;;;;;;;10.15;8.60;;;;;;;12.14;50.52;100271.33;1718961;82;21073;-60
2021/11/25 09:23:06;;;;;;;10.48;8.98;;;;;;;12.15;50.51;100267.69;1720978;82;21120;-58
2021/11/25 09:25:32;;;;;;;10.35;9.20;;;;;;;12.15;50.50;100259.70;1732331;80;21035;-59
2021/11/25 09:28:00;;;;;;;10.32;8.98;;;;;;;12.15;50.47;100261.85;1728935;82;21089;-59
2021/11/25 09:30:28;;;;;;;9.50;8.48;;;;;;;12.17;50.49;100257.70;1730365;82;21059;-61
2021/11/25 09:32:55;;;;;;;11.05;9.18;;;;;;;12.17;50.45;100260.36;1723466;82;21049;-61
2021/11/25 09:35:21;;;;;;;11.05;9.35;;;;;;;12.17;50.44;100258.52;1724322;82;21550;-61
2021/11/25 09:37:48;;;;;;;10.38;9.38;;;;;;;12.18;50.43;100253.52;1724784;81;21073;-61
2021/11/25 09:40:23;;;;;;;9.85;8.85;;;;;;;12.20;50.41;100252.02;1735516;80;21010;-61
2021/11/25 09:42:57;;;;;;;10.28;9.25;;;;;;;12.22;50.39;100253.19;1730089;82;21097;-60
2021/11/25 09:45:24;;;;;;;9.83;8.63;;;;;;;12.22;50.38;100252.69;1728609;81;21121;-61
2021/11/25 09:47:55;;;;;;;9.75;8.75;;;;;;;12.22;50.35;100255.34;1728813;82;21049;-62
2021/11/25 09:50:22;;;;;;;10.40;9.30;;;;;;;12.23;50.34;100252.17;1720855;82;21106;-62
2021/11/25 09:52:53;;;;;;;10.68;9.35;;;;;;;12.23;50.32;100249.03;1728590;82;21043;-62
2021/11/25 09:55:20;;;;;;;11.30;9.55;;;;;;;12.24;50.30;100248.02;1716097;80;21503;-62
2021/11/25 09:57:50;;;;;;;10.80;9.33;;;;;;;12.24;50.31;100245.36;1717348;82;21086;-62
2021/11/25 10:00:16;;;;;;;10.32;9.23;;;;;;;12.25;50.26;100240.37;1724882;82;21841;-59
2021/11/25 10:02:42;;;;;;;10.45;9.18;;;;;;;12.27;50.24;100244.22;1725988;82;21044;-61
2021/11/25 10:05:09;;;;;;;10.15;9.05;;;;;;;12.27;50.22;100241.05;1716199;82;21042;-60
2021/11/25 10:07:38;;;;;;;10.53;9.33;;;;;;;12.27;50.23;100240.22;1722294;82;21038;-63
2021/11/25 10:10:27;;;;;;;10.60;9.55;;;;;;;12.28;50.20;100236.54;1719373;82;21514;-60
2021/11/25 10:12:59;;;;;;;12.28;9.20;;;;;;;12.29;50.19;100229.72;1724184;82;22355;-60
2021/11/25 10:15:35;;;;;;;10.55;9.45;;;;;;;12.29;50.18;100230.23;1724277;82;21513;-60
2021/11/25 10:18:16;;;;;;;10.13;9.03;;;;;;;12.28;50.16;100225.38;1734593;82;20999;-59
2021/11/25 10:20:48;;;;;;;10.95;8.98;;;;;;;12.29;50.16;100216.91;1733629;82;22051;-61
2021/11/25 10:23:22;;;;;;;10.23;9.10;;;;;;;12.31;50.14;100214.91;1726866;82;21040;-61
2021/11/25 10:25:57;;;;;;;10.05;8.78;;;;;;;12.30;50.14;100210.05;1731927;80;21173;-61
2021/11/25 10:28:31;;;;;;;11.53;10.03;;;;;;;12.30;50.12;100217.22;1726572;82;21539;-59
2021/11/25 10:31:11;;;;;;;11.20;9.40;;;;;;;12.32;50.12;100211.22;1723247;82;21085;-61
2021/11/25 10:33:52;;;;;;;11.05;9.20;;;;;;;12.31;50.10;100201.08;1725068;82;21026;-62
2021/11/25 10:41:51;;;;;;;11.33;8.68;;;;;;;12.32;50.10;100189.91;1725765;81;21033;-59
2021/11/25 10:44:25;;;;;;;10.80;8.70;;;;;;;12.32;50.11;100188.58;1717340;82;21110;-61
2021/11/25 10:47:07;;;;;;;11.33;8.58;;;;;;;12.32;50.07;100185.44;1735120;82;21022;-61
2021/11/25 10:49:56;;;;;;;11.60;9.30;;;;;;;12.34;50.08;100175.44;1734568;82;21497;-61
2021/11/25 10:52:36;;;;;;;9.48;8.33;;;;;;;12.35;50.07;100180.27;1721540;80;21981;-60
2021/11/25 10:55:22;;;;;;;10.18;8.95;;;;;;;12.34;50.07;100174.11;1714284;82;21025;-60
2021/11/25 10:57:57;;;;;;;11.25;9.28;;;;;;;12.35;50.04;100166.43;1740215;82;21097;-60
2021/11/25 11:00:36;;;;;;;10.15;9.18;;;;;;;12.36;50.04;100173.92;1742037;81;21038;-60
2021/11/25 11:03:23;;;;;;;10.53;9.03;;;;;;;12.36;50.02;100166.78;1752182;81;21061;-61
2021/11/25 11:06:04;;;;;;;10.18;8.78;;;;;;;12.37;49.99;100163.09;1739421;80;21131;-60
2021/11/25 11:08:44;;;;;;;10.45;9.40;;;;;;;12.37;49.99;100151.61;1752226;80;21086;-60
2021/11/25 11:11:11;;;;;;;10.20;9.20;;;;;;;12.37;50.00;100152.95;1753042;80;21066;-60
2021/11/25 11:13:49;;;;;;;10.32;9.28;;;;;;;12.38;49.98;100136.80;1749397;80;21014;-61
2021/11/25 11:16:25;;;;;;;11.90;9.03;;;;;;;12.38;49.98;100138.13;1742355;80;21180;-60
2021/11/25 11:18:56;;;;;;;9.63;8.50;;;;;;;12.40;49.94;100128.64;1749118;80;21087;-59
2021/11/25 11:21:36;;;;;;;9.85;8.85;;;;;;;12.41;49.92;100128.13;1746571;81;22180;-61
2021/11/25 11:24:24;;;;;;;10.43;9.30;;;;;;;12.41;49.91;100128.95;1739980;80;21032;-60
2021/11/25 11:26:59;;;;;;;9.45;8.45;;;;;;;12.44;49.91;100127.77;1755427;80;21097;-60
2021/11/25 11:29:30;;;;;;;10.28;9.15;;;;;;;12.44;49.91;100131.29;1732357;81;21084;-59
2021/11/25 11:31:59;;;;;;;9.05;8.15;;;;;;;12.45;49.90;100124.12;1739446;80;21101;-60
2021/11/25 11:34:27;;;;;;;10.45;8.78;;;;;;;12.46;49.90;100115.11;1749251;81;22410;-59
2021/11/25 11:36:55;;;;;;;9.43;8.53;;;;;;;12.47;49.87;100108.28;1750826;81;20998;-61
2021/11/25 11:39:25;;;;;;;10.78;8.78;;;;;;;12.48;49.85;100101.97;1746713;81;21079;-60
2021/11/25 11:41:57;;;;;;;9.60;8.65;;;;;;;12.50;49.84;100111.13;1745292;81;20990;-60